sensor_id;sensor_type;location;lat;lon;timestamp;temperature;humidity
52323;DHT22;38263;52.920;6.238;2022-09-21T00:01:05;8.20;99.90
52323;DHT22;38263;52.920;6.238;2022-09-21T00:03:31;8.20;99.90
52323;DHT22;38263;52.920;6.238;2022-09-21T00:06:05;8.20;99.90
52323;DHT22;38263;52.920;6.238;2022-09-21T00:08:31;8.20;99.90
52323;DHT22;38263;52.920;6.238;2022-09-21T00:10:57;8.30;99.90
52323;DHT22;38263;52.920;6.238;2022-09-21T00:13:23;8.20;99.90
52323;DHT22;38263;52.920;6.238;2022-09-21T00:15:50;8.30;99.90
52323;DHT22;38263;52.920;6.238;2022-09-21T00:18:17;8.20;99.90
52323;DHT22;38263;52.920;6.238;2022-09-21T00:20:43;8.10;99.90
52323;DHT22;38263;52.920;6.238;2022-09-21T00:23:08;8.20;99.90
52323;DHT22;38263;52.920;6.238;2022-09-21T00:25:34;8.00;99.90
52323;DHT22;38263;52.920;6.238;2022-09-21T00:28:00;8.10;99.90
52323;DHT22;38263;52.920;6.238;2022-09-21T00:30:26;7.90;99.90
52323;DHT22;38263;52.920;6.238;2022-09-21T00:32:53;7.80;99.90
52323;DHT22;38263;52.920;6.238;2022-09-21T00:35:19;7.60;99.90
52323;DHT22;38263;52.920;6.238;2022-09-21T00:37:45;7.50;99.90
52323;DHT22;38263;52.920;6.238;2022-09-21T00:40:10;7.60;99.90
52323;DHT22;38263;52.920;6.238;2022-09-21T00:42:36;7.60;99.90
52323;DHT22;38263;52.920;6.238;2022-09-21T00:45:04;7.50;99.90
52323;DHT22;38263;52.920;6.238;2022-09-21T00:47:35;7.50;99.90
52323;DHT22;38263;52.920;6.238;2022-09-21T00:50:13;7.70;99.90
52323;DHT22;38263;52.920;6.238;2022-09-21T00:52:42;7.60;99.90
52323;DHT22;38263;52.920;6.238;2022-09-21T00:55:28;7.60;99.90
52323;DHT22;38263;52.920;6.238;2022-09-21T00:58:05;7.50;99.90
52323;DHT22;38263;52.920;6.238;2022-09-21T01:00:34;7.50;99.90
52323;DHT22;38263;52.920;6.238;2022-09-21T01:03:00;7.40;99.90
52323;DHT22;38263;52.920;6.238;2022-09-21T01:05:27;7.30;99.90
52323;DHT22;38263;52.920;6.238;2022-09-21T01:07:55;7.30;99.90
52323;DHT22;38263;52.920;6.238;2022-09-21T01:10:22;7.30;99.90
52323;DHT22;38263;52.920;6.238;2022-09-21T01:15:48;7.40;99.90
52323;DHT22;38263;52.920;6.238;2022-09-21T01:18:33;7.50;99.90
52323;DHT22;38263;52.920;6.238;2022-09-21T01:21:19;7.40;99.90
52323;DHT22;38263;52.920;6.238;2022-09-21T01:24:11;7.30;99.90
52323;DHT22;38263;52.920;6.238;2022-09-21T01:29:58;7.50;99.90
52323;DHT22;38263;52.920;6.238;2022-09-21T01:32:36;7.30;99.90
52323;DHT22;38263;52.920;6.238;2022-09-21T01:35:12;7.20;99.90
52323;DHT22;38263;52.920;6.238;2022-09-21T01:37:48;7.20;99.90
52323;DHT22;38263;52.920;6.238;2022-09-21T01:40:25;7.00;99.90
52323;DHT22;38263;52.920;6.238;2022-09-21T01:42:54;7.00;99.90
52323;DHT22;38263;52.920;6.238;2022-09-21T01:45:29;7.20;99.90
52323;DHT22;38263;52.920;6.238;2022-09-21T01:47:56;7.10;99.90
52323;DHT22;38263;52.920;6.238;2022-09-21T01:50:25;7.10;99.90
52323;DHT22;38263;52.920;6.238;2022-09-21T01:52:56;7.20;99.90
52323;DHT22;38263;52.920;6.238;2022-09-21T01:55:44;7.20;99.90
52323;DHT22;38263;52.920;6.238;2022-09-21T02:01:04;7.20;99.90
52323;DHT22;38263;52.920;6.238;2022-09-21T02:03:47;7.10;99.90
52323;DHT22;38263;52.920;6.238;2022-09-21T02:06:14;7.00;99.90
52323;DHT22;38263;52.920;6.238;2022-09-21T02:08:41;7.00;99.90
52323;DHT22;38263;52.920;6.238;2022-09-21T02:11:07;7.10;99.90
52323;DHT22;38263;52.920;6.238;2022-09-21T02:13:38;7.10;99.90
52323;DHT22;38263;52.920;6.238;2022-09-21T02:21:31;7.10;99.90
52323;DHT22;38263;52.920;6.238;2022-09-21T02:30:21;6.90;99.90
52323;DHT22;38263;52.920;6.238;2022-09-21T02:35:36;7.00;99.90
52323;DHT22;38263;52.920;6.238;2022-09-21T02:38:23;6.90;99.90
52323;DHT22;38263;52.920;6.238;2022-09-21T02:41:10;7.10;99.90
52323;DHT22;38263;52.920;6.238;2022-09-21T02:46:17;7.00;99.90
52323;DHT22;38263;52.920;6.238;2022-09-21T02:48:47;6.90;99.90
52323;DHT22;38263;52.920;6.238;2022-09-21T02:51:32;7.00;99.90
52323;DHT22;38263;52.920;6.238;2022-09-21T02:54:02;6.90;99.90
52323;DHT22;38263;52.920;6.238;2022-09-21T03:01:24;6.80;99.90
52323;DHT22;38263;52.920;6.238;2022-09-21T03:03:51;6.80;99.90
52323;DHT22;38263;52.920;6.238;2022-09-21T03:06:17;6.60;99.90
52323;DHT22;38263;52.920;6.238;2022-09-21T03:08:42;6.50;99.90
52323;DHT22;38263;52.920;6.238;2022-09-21T03:11:08;6.30;99.90
52323;DHT22;38263;52.920;6.238;2022-09-21T03:13:35;6.40;99.90
52323;DHT22;38263;52.920;6.238;2022-09-21T03:16:03;6.20;99.90
52323;DHT22;38263;52.920;6.238;2022-09-21T03:18:29;6.00;99.90
52323;DHT22;38263;52.920;6.238;2022-09-21T03:20:55;6.10;99.90
52323;DHT22;38263;52.920;6.238;2022-09-21T03:23:21;6.00;99.90
52323;DHT22;38263;52.920;6.238;2022-09-21T03:25:47;6.10;99.90
52323;DHT22;38263;52.920;6.238;2022-09-21T03:28:14;6.10;99.90
52323;DHT22;38263;52.920;6.238;2022-09-21T03:30:40;6.10;99.90
52323;DHT22;38263;52.920;6.238;2022-09-21T03:33:06;6.00;99.90
52323;DHT22;38263;52.920;6.238;2022-09-21T03:35:33;6.10;99.90
52323;DHT22;38263;52.920;6.238;2022-09-21T03:37:59;6.20;99.90
52323;DHT22;38263;52.920;6.238;2022-09-21T03:40:25;6.10;99.90
52323;DHT22;38263;52.920;6.238;2022-09-21T03:42:52;6.20;99.90
52323;DHT22;38263;52.920;6.238;2022-09-21T03:45:19;6.20;99.90
52323;DHT22;38263;52.920;6.238;2022-09-21T03:47:46;6.20;99.90
52323;DHT22;38263;52.920;6.238;2022-09-21T03:50:12;6.40;99.90
52323;DHT22;38263;52.920;6.238;2022-09-21T03:52:38;6.20;99.90
52323;DHT22;38263;52.920;6.238;2022-09-21T03:55:04;6.20;99.90
52323;DHT22;38263;52.920;6.238;2022-09-21T03:59:58;6.10;99.90
52323;DHT22;38263;52.920;6.238;2022-09-21T04:02:24;6.10;99.90
52323;DHT22;38263;52.920;6.238;2022-09-21T04:04:50;6.00;99.90
52323;DHT22;38263;52.920;6.238;2022-09-21T04:07:15;5.80;99.90
52323;DHT22;38263;52.920;6.238;2022-09-21T04:09:41;6.00;99.90
52323;DHT22;38263;52.920;6.238;2022-09-21T04:12:07;6.00;99.90
52323;DHT22;38263;52.920;6.238;2022-09-21T04:14:32;5.70;99.90
52323;DHT22;38263;52.920;6.238;2022-09-21T04:16:58;6.00;99.90
52323;DHT22;38263;52.920;6.238;2022-09-21T04:19:24;5.70;99.90
52323;DHT22;38263;52.920;6.238;2022-09-21T04:21:50;5.70;99.90
52323;DHT22;38263;52.920;6.238;2022-09-21T04:24:20;5.70;99.90
52323;DHT22;38263;52.920;6.238;2022-09-21T04:29:12;6.00;99.90
52323;DHT22;38263;52.920;6.238;2022-09-21T04:31:38;5.80;99.90
52323;DHT22;38263;52.920;6.238;2022-09-21T04:34:04;5.90;99.90
52323;DHT22;38263;52.920;6.238;2022-09-21T04:36:30;5.90;99.90
52323;DHT22;38263;52.920;6.238;2022-09-21T04:38:59;5.80;99.90
52323;DHT22;38263;52.920;6.238;2022-09-21T04:41:25;5.80;99.90
52323;DHT22;38263;52.920;6.238;2022-09-21T04:43:50;5.80;99.90
52323;DHT22;38263;52.920;6.238;2022-09-21T04:46:17;5.60;99.90
52323;DHT22;38263;52.920;6.238;2022-09-21T04:48:44;5.80;99.90
52323;DHT22;38263;52.920;6.238;2022-09-21T04:51:10;5.80;99.90
52323;DHT22;38263;52.920;6.238;2022-09-21T04:53:38;5.80;99.90
52323;DHT22;38263;52.920;6.238;2022-09-21T04:56:05;5.70;99.90
52323;DHT22;38263;52.920;6.238;2022-09-21T04:58:32;5.80;99.90
52323;DHT22;38263;52.920;6.238;2022-09-21T05:00:58;5.80;99.90
52323;DHT22;38263;52.920;6.238;2022-09-21T05:03:24;5.80;99.90
52323;DHT22;38263;52.920;6.238;2022-09-21T05:05:52;5.60;99.90
52323;DHT22;38263;52.920;6.238;2022-09-21T05:08:18;5.80;99.90
52323;DHT22;38263;52.920;6.238;2022-09-21T05:11:02;5.80;99.90
52323;DHT22;38263;52.920;6.238;2022-09-21T05:13:28;5.60;99.90
52323;DHT22;38263;52.920;6.238;2022-09-21T05:15:54;5.80;99.90
52323;DHT22;38263;52.920;6.238;2022-09-21T05:18:19;5.60;99.90
52323;DHT22;38263;52.920;6.238;2022-09-21T05:20:45;5.50;99.90
52323;DHT22;38263;52.920;6.238;2022-09-21T05:23:17;5.30;99.90
52323;DHT22;38263;52.920;6.238;2022-09-21T05:25:43;5.30;99.90
52323;DHT22;38263;52.920;6.238;2022-09-21T05:28:08;5.40;99.90
52323;DHT22;38263;52.920;6.238;2022-09-21T05:30:34;5.40;99.90
52323;DHT22;38263;52.920;6.238;2022-09-21T05:33:02;5.40;99.90
52323;DHT22;38263;52.920;6.238;2022-09-21T05:35:36;5.70;99.90
52323;DHT22;38263;52.920;6.238;2022-09-21T05:38:12;5.60;99.90
52323;DHT22;38263;52.920;6.238;2022-09-21T05:40:41;5.50;99.90
52323;DHT22;38263;52.920;6.238;2022-09-21T05:43:08;5.60;99.90
52323;DHT22;38263;52.920;6.238;2022-09-21T05:45:37;5.60;99.90
52323;DHT22;38263;52.920;6.238;2022-09-21T05:48:06;5.60;99.90
52323;DHT22;38263;52.920;6.238;2022-09-21T05:51:22;5.90;99.90
52323;DHT22;38263;52.920;6.238;2022-09-21T05:53:58;6.10;99.90
52323;DHT22;38263;52.920;6.238;2022-09-21T05:56:30;6.20;99.90
52323;DHT22;38263;52.920;6.238;2022-09-21T06:04:11;6.40;99.90
52323;DHT22;38263;52.920;6.238;2022-09-21T06:06:37;6.30;99.90
52323;DHT22;38263;52.920;6.238;2022-09-21T06:09:03;6.40;99.90
52323;DHT22;38263;52.920;6.238;2022-09-21T06:11:29;6.40;99.90
52323;DHT22;38263;52.920;6.238;2022-09-21T06:13:55;6.40;99.90
52323;DHT22;38263;52.920;6.238;2022-09-21T06:16:21;6.40;99.90
52323;DHT22;38263;52.920;6.238;2022-09-21T06:18:46;6.40;99.90
52323;DHT22;38263;52.920;6.238;2022-09-21T06:21:12;6.50;99.90
52323;DHT22;38263;52.920;6.238;2022-09-21T06:23:38;6.60;99.90
52323;DHT22;38263;52.920;6.238;2022-09-21T06:26:03;6.70;99.90
52323;DHT22;38263;52.920;6.238;2022-09-21T06:28:29;6.70;99.90
52323;DHT22;38263;52.920;6.238;2022-09-21T06:30:56;6.90;99.90
52323;DHT22;38263;52.920;6.238;2022-09-21T06:33:23;6.90;99.90
52323;DHT22;38263;52.920;6.238;2022-09-21T06:38:18;6.90;99.90
52323;DHT22;38263;52.920;6.238;2022-09-21T06:40:43;7.00;99.90
52323;DHT22;38263;52.920;6.238;2022-09-21T06:43:09;7.00;99.90
52323;DHT22;38263;52.920;6.238;2022-09-21T06:45:34;7.10;99.90
52323;DHT22;38263;52.920;6.238;2022-09-21T06:48:00;7.00;99.90
52323;DHT22;38263;52.920;6.238;2022-09-21T06:50:26;7.00;99.90
52323;DHT22;38263;52.920;6.238;2022-09-21T06:52:51;7.20;99.90
52323;DHT22;38263;52.920;6.238;2022-09-21T06:55:17;7.30;99.90
52323;DHT22;38263;52.920;6.238;2022-09-21T06:57:43;7.40;99.90
52323;DHT22;38263;52.920;6.238;2022-09-21T07:00:10;7.50;99.90
52323;DHT22;38263;52.920;6.238;2022-09-21T07:02:36;7.60;99.90
52323;DHT22;38263;52.920;6.238;2022-09-21T07:05:03;7.70;99.90
52323;DHT22;38263;52.920;6.238;2022-09-21T07:07:29;7.90;99.90
52323;DHT22;38263;52.920;6.238;2022-09-21T07:09:56;7.80;99.90
52323;DHT22;38263;52.920;6.238;2022-09-21T07:12:24;8.00;99.90
52323;DHT22;38263;52.920;6.238;2022-09-21T07:14:50;8.30;99.90
52323;DHT22;38263;52.920;6.238;2022-09-21T07:17:16;8.60;99.90
52323;DHT22;38263;52.920;6.238;2022-09-21T07:19:42;8.70;99.90
52323;DHT22;38263;52.920;6.238;2022-09-21T07:24:33;9.00;99.90
52323;DHT22;38263;52.920;6.238;2022-09-21T07:26:59;9.20;99.90
52323;DHT22;38263;52.920;6.238;2022-09-21T07:29:24;9.90;99.90
52323;DHT22;38263;52.920;6.238;2022-09-21T07:36:42;10.90;99.90
52323;DHT22;38263;52.920;6.238;2022-09-21T07:39:08;11.10;99.90
52323;DHT22;38263;52.920;6.238;2022-09-21T07:41:34;11.10;99.90
52323;DHT22;38263;52.920;6.238;2022-09-21T07:48:53;11.30;99.90
52323;DHT22;38263;52.920;6.238;2022-09-21T07:51:19;11.20;99.90
52323;DHT22;38263;52.920;6.238;2022-09-21T07:53:44;11.10;99.90
52323;DHT22;38263;52.920;6.238;2022-09-21T07:56:15;11.20;99.90
52323;DHT22;38263;52.920;6.238;2022-09-21T07:58:41;11.20;99.90
52323;DHT22;38263;52.920;6.238;2022-09-21T08:01:26;11.40;99.90
52323;DHT22;38263;52.920;6.238;2022-09-21T08:03:54;11.20;99.90
52323;DHT22;38263;52.920;6.238;2022-09-21T08:06:21;11.40;99.90
52323;DHT22;38263;52.920;6.238;2022-09-21T08:08:47;11.50;99.90
52323;DHT22;38263;52.920;6.238;2022-09-21T08:11:18;11.90;99.90
52323;DHT22;38263;52.920;6.238;2022-09-21T08:13:44;11.70;99.90
52323;DHT22;38263;52.920;6.238;2022-09-21T08:16:10;11.80;99.90
52323;DHT22;38263;52.920;6.238;2022-09-21T08:18:37;12.00;99.90
52323;DHT22;38263;52.920;6.238;2022-09-21T08:21:04;12.10;99.90
52323;DHT22;38263;52.920;6.238;2022-09-21T08:23:29;12.30;99.90
52323;DHT22;38263;52.920;6.238;2022-09-21T08:25:59;12.40;99.90
52323;DHT22;38263;52.920;6.238;2022-09-21T08:28:26;12.60;99.90
52323;DHT22;38263;52.920;6.238;2022-09-21T08:30:51;12.70;99.90
52323;DHT22;38263;52.920;6.238;2022-09-21T08:33:20;12.90;99.90
52323;DHT22;38263;52.920;6.238;2022-09-21T08:35:57;12.90;99.90
52323;DHT22;38263;52.920;6.238;2022-09-21T08:38:23;13.00;99.90
52323;DHT22;38263;52.920;6.238;2022-09-21T08:40:49;13.20;99.90
52323;DHT22;38263;52.920;6.238;2022-09-21T08:45:52;13.40;99.90
52323;DHT22;38263;52.920;6.238;2022-09-21T08:48:23;13.70;99.90
52323;DHT22;38263;52.920;6.238;2022-09-21T08:50:53;13.90;99.90
52323;DHT22;38263;52.920;6.238;2022-09-21T08:53:32;14.10;99.90
52323;DHT22;38263;52.920;6.238;2022-09-21T08:55:59;13.90;99.90
52323;DHT22;38263;52.920;6.238;2022-09-21T08:58:28;14.80;99.90
52323;DHT22;38263;52.920;6.238;2022-09-21T09:01:03;16.20;99.90
52323;DHT22;38263;52.920;6.238;2022-09-21T09:03:37;18.80;99.90
52323;DHT22;38263;52.920;6.238;2022-09-21T09:06:15;20.10;99.90
52323;DHT22;38263;52.920;6.238;2022-09-21T09:12:07;22.20;99.90
52323;DHT22;38263;52.920;6.238;2022-09-21T09:20:15;24.50;99.90
52323;DHT22;38263;52.920;6.238;2022-09-21T09:22:46;26.20;99.90
52323;DHT22;38263;52.920;6.238;2022-09-21T09:25:22;26.20;99.90
52323;DHT22;38263;52.920;6.238;2022-09-21T09:27:57;24.00;99.90
52323;DHT22;38263;52.920;6.238;2022-09-21T09:30:25;22.70;99.90
52323;DHT22;38263;52.920;6.238;2022-09-21T09:33:14;21.80;99.90
52323;DHT22;38263;52.920;6.238;2022-09-21T09:35:48;22.10;99.90
52323;DHT22;38263;52.920;6.238;2022-09-21T09:38:24;21.00;99.90
52323;DHT22;38263;52.920;6.238;2022-09-21T09:49:23;17.70;99.90
52323;DHT22;38263;52.920;6.238;2022-09-21T09:51:53;16.80;99.90
52323;DHT22;38263;52.920;6.238;2022-09-21T09:54:21;16.80;99.90
52323;DHT22;38263;52.920;6.238;2022-09-21T09:56:48;16.20;99.90
52323;DHT22;38263;52.920;6.238;2022-09-21T09:59:35;15.90;99.90
52323;DHT22;38263;52.920;6.238;2022-09-21T10:02:09;15.80;99.90
52323;DHT22;38263;52.920;6.238;2022-09-21T10:05:00;15.80;99.90
52323;DHT22;38263;52.920;6.238;2022-09-21T10:07:41;15.90;99.90
52323;DHT22;38263;52.920;6.238;2022-09-21T10:12:48;16.10;99.90
52323;DHT22;38263;52.920;6.238;2022-09-21T10:15:19;16.00;99.90
52323;DHT22;38263;52.920;6.238;2022-09-21T10:17:46;16.00;99.90
52323;DHT22;38263;52.920;6.238;2022-09-21T10:20:17;15.90;99.90
52323;DHT22;38263;52.920;6.238;2022-09-21T10:22:47;15.80;99.90
52323;DHT22;38263;52.920;6.238;2022-09-21T10:25:18;15.80;99.90
52323;DHT22;38263;52.920;6.238;2022-09-21T10:27:47;15.90;99.90
52323;DHT22;38263;52.920;6.238;2022-09-21T10:32:56;15.80;99.90
52323;DHT22;38263;52.920;6.238;2022-09-21T10:35:22;16.10;99.90
52323;DHT22;38263;52.920;6.238;2022-09-21T10:37:48;16.10;99.90
52323;DHT22;38263;52.920;6.238;2022-09-21T10:40:35;16.20;99.90
52323;DHT22;38263;52.920;6.238;2022-09-21T10:43:01;16.10;99.90
52323;DHT22;38263;52.920;6.238;2022-09-21T10:45:31;16.20;99.90
52323;DHT22;38263;52.920;6.238;2022-09-21T10:48:08;16.30;99.90
52323;DHT22;38263;52.920;6.238;2022-09-21T10:50:40;16.30;99.90
52323;DHT22;38263;52.920;6.238;2022-09-21T10:53:18;16.40;99.90
52323;DHT22;38263;52.920;6.238;2022-09-21T10:55:59;16.60;99.90
52323;DHT22;38263;52.920;6.238;2022-09-21T10:58:26;16.30;99.90
52323;DHT22;38263;52.920;6.238;2022-09-21T11:00:53;16.50;99.90
52323;DHT22;38263;52.920;6.238;2022-09-21T11:05:59;16.50;99.90
52323;DHT22;38263;52.920;6.238;2022-09-21T11:08:31;16.70;99.90
52323;DHT22;38263;52.920;6.238;2022-09-21T11:19:20;16.20;99.90
52323;DHT22;38263;52.920;6.238;2022-09-21T11:22:12;16.10;99.90
52323;DHT22;38263;52.920;6.238;2022-09-21T11:24:58;16.10;99.90
52323;DHT22;38263;52.920;6.238;2022-09-21T11:27:33;15.90;99.90
52323;DHT22;38263;52.920;6.238;2022-09-21T11:30:12;16.10;99.90
52323;DHT22;38263;52.920;6.238;2022-09-21T11:56:53;16.80;99.90
52323;DHT22;38263;52.920;6.238;2022-09-21T11:59:44;16.70;99.90
52323;DHT22;38263;52.920;6.238;2022-09-21T12:04:49;16.60;99.90
52323;DHT22;38263;52.920;6.238;2022-09-21T12:10:29;16.60;99.90
52323;DHT22;38263;52.920;6.238;2022-09-21T12:15:44;16.70;99.90
52323;DHT22;38263;52.920;6.238;2022-09-21T12:21:13;16.30;99.90
52323;DHT22;38263;52.920;6.238;2022-09-21T12:23:42;16.30;99.90
52323;DHT22;38263;52.920;6.238;2022-09-21T12:26:13;16.10;99.90
52323;DHT22;38263;52.920;6.238;2022-09-21T12:28:47;16.20;99.90
52323;DHT22;38263;52.920;6.238;2022-09-21T12:31:22;16.10;99.90
52323;DHT22;38263;52.920;6.238;2022-09-21T12:34:02;16.10;99.90
52323;DHT22;38263;52.920;6.238;2022-09-21T12:36:43;16.10;99.90
52323;DHT22;38263;52.920;6.238;2022-09-21T12:39:24;16.20;99.90
52323;DHT22;38263;52.920;6.238;2022-09-21T12:41:53;16.20;99.90
52323;DHT22;38263;52.920;6.238;2022-09-21T12:44:35;16.30;99.90
52323;DHT22;38263;52.920;6.238;2022-09-21T12:49:49;16.60;99.90
52323;DHT22;38263;52.920;6.238;2022-09-21T12:52:22;16.60;99.90
52323;DHT22;38263;52.920;6.238;2022-09-21T13:00:36;16.60;99.90
52323;DHT22;38263;52.920;6.238;2022-09-21T13:03:15;16.70;99.90
52323;DHT22;38263;52.920;6.238;2022-09-21T13:08:37;18.10;99.90
52323;DHT22;38263;52.920;6.238;2022-09-21T13:11:05;16.60;99.90
52323;DHT22;38263;52.920;6.238;2022-09-21T13:13:44;16.50;99.90
52323;DHT22;38263;52.920;6.238;2022-09-21T13:16:34;16.60;99.90
52323;DHT22;38263;52.920;6.238;2022-09-21T13:21:39;16.60;99.90
52323;DHT22;38263;52.920;6.238;2022-09-21T13:24:06;16.50;99.90
52323;DHT22;38263;52.920;6.238;2022-09-21T13:26:54;16.60;99.90
52323;DHT22;38263;52.920;6.238;2022-09-21T13:34:23;16.70;99.90
52323;DHT22;38263;52.920;6.238;2022-09-21T13:47:48;16.90;99.90
52323;DHT22;38263;52.920;6.238;2022-09-21T13:50:25;16.90;99.90
52323;DHT22;38263;52.920;6.238;2022-09-21T13:52:57;16.70;99.90
52323;DHT22;38263;52.920;6.238;2022-09-21T13:55:29;16.70;99.90
52323;DHT22;38263;52.920;6.238;2022-09-21T13:57:59;16.80;99.90
52323;DHT22;38263;52.920;6.238;2022-09-21T14:00:53;16.70;99.90
52323;DHT22;38263;52.920;6.238;2022-09-21T14:03:31;16.70;99.90
52323;DHT22;38263;52.920;6.238;2022-09-21T14:06:09;16.80;99.90
52323;DHT22;38263;52.920;6.238;2022-09-21T14:11:21;16.90;99.90
52323;DHT22;38263;52.920;6.238;2022-09-21T14:30:18;16.70;99.90
52323;DHT22;38263;52.920;6.238;2022-09-21T14:35:27;16.30;99.90
52323;DHT22;38263;52.920;6.238;2022-09-21T14:38:00;16.50;99.90
52323;DHT22;38263;52.920;6.238;2022-09-21T14:40:35;16.50;99.90
52323;DHT22;38263;52.920;6.238;2022-09-21T14:43:07;16.30;99.90
52323;DHT22;38263;52.920;6.238;2022-09-21T14:45:52;16.30;99.90
52323;DHT22;38263;52.920;6.238;2022-09-21T14:51:51;16.60;99.90
52323;DHT22;38263;52.920;6.238;2022-09-21T14:57:33;16.70;99.90
52323;DHT22;38263;52.920;6.238;2022-09-21T15:02:47;16.80;99.90
52323;DHT22;38263;52.920;6.238;2022-09-21T15:05:33;16.60;99.90
52323;DHT22;38263;52.920;6.238;2022-09-21T15:08:12;16.40;99.90
52323;DHT22;38263;52.920;6.238;2022-09-21T15:11:08;16.60;99.90
52323;DHT22;38263;52.920;6.238;2022-09-21T15:16:42;16.50;99.90
52323;DHT22;38263;52.920;6.238;2022-09-21T15:21:51;16.20;99.90
52323;DHT22;38263;52.920;6.238;2022-09-21T15:24:30;16.30;99.90
52323;DHT22;38263;52.920;6.238;2022-09-21T15:27:08;16.10;99.90
52323;DHT22;38263;52.920;6.238;2022-09-21T15:29:36;15.90;99.90
52323;DHT22;38263;52.920;6.238;2022-09-21T15:32:03;15.90;99.90
52323;DHT22;38263;52.920;6.238;2022-09-21T15:34:29;16.10;99.90
52323;DHT22;38263;52.920;6.238;2022-09-21T15:37:07;15.70;99.90
52323;DHT22;38263;52.920;6.238;2022-09-21T15:39:36;16.00;99.90
52323;DHT22;38263;52.920;6.238;2022-09-21T15:42:19;15.90;99.90
52323;DHT22;38263;52.920;6.238;2022-09-21T15:44:47;16.60;99.90
52323;DHT22;38263;52.920;6.238;2022-09-21T15:47:18;17.80;99.90
52323;DHT22;38263;52.920;6.238;2022-09-21T15:49:44;18.50;99.90
52323;DHT22;38263;52.920;6.238;2022-09-21T15:59:51;17.30;99.90
52323;DHT22;38263;52.920;6.238;2022-09-21T16:02:22;16.70;99.90
52323;DHT22;38263;52.920;6.238;2022-09-21T16:04:49;16.70;99.90
52323;DHT22;38263;52.920;6.238;2022-09-21T16:07:31;16.70;99.90
52323;DHT22;38263;52.920;6.238;2022-09-21T16:09:57;16.30;99.90
52323;DHT22;38263;52.920;6.238;2022-09-21T16:12:41;16.30;99.90
52323;DHT22;38263;52.920;6.238;2022-09-21T16:15:24;16.00;99.90
52323;DHT22;38263;52.920;6.238;2022-09-21T16:18:02;15.90;99.90
52323;DHT22;38263;52.920;6.238;2022-09-21T16:20:44;15.60;99.90
52323;DHT22;38263;52.920;6.238;2022-09-21T16:23:13;15.50;99.90
52323;DHT22;38263;52.920;6.238;2022-09-21T16:25:40;15.30;99.90
52323;DHT22;38263;52.920;6.238;2022-09-21T16:30:44;15.20;99.90
52323;DHT22;38263;52.920;6.238;2022-09-21T16:35:57;15.10;99.90
52323;DHT22;38263;52.920;6.238;2022-09-21T16:38:23;14.90;99.90
52323;DHT22;38263;52.920;6.238;2022-09-21T16:40:48;15.00;99.90
52323;DHT22;38263;52.920;6.238;2022-09-21T16:43:16;15.10;99.90
52323;DHT22;38263;52.920;6.238;2022-09-21T16:45:42;14.80;99.90
52323;DHT22;38263;52.920;6.238;2022-09-21T16:48:11;15.00;99.90
52323;DHT22;38263;52.920;6.238;2022-09-21T16:50:37;14.90;99.90
52323;DHT22;38263;52.920;6.238;2022-09-21T16:53:03;14.80;99.90
52323;DHT22;38263;52.920;6.238;2022-09-21T16:55:29;14.80;99.90
52323;DHT22;38263;52.920;6.238;2022-09-21T16:57:55;14.70;99.90
52323;DHT22;38263;52.920;6.238;2022-09-21T17:00:20;14.70;99.90
52323;DHT22;38263;52.920;6.238;2022-09-21T17:02:47;14.70;99.90
52323;DHT22;38263;52.920;6.238;2022-09-21T17:05:13;14.70;99.90
52323;DHT22;38263;52.920;6.238;2022-09-21T17:07:51;14.50;99.90
52323;DHT22;38263;52.920;6.238;2022-09-21T17:10:18;14.50;99.90
52323;DHT22;38263;52.920;6.238;2022-09-21T17:12:44;14.50;99.90
52323;DHT22;38263;52.920;6.238;2022-09-21T17:15:13;14.50;99.90
52323;DHT22;38263;52.920;6.238;2022-09-21T17:17:39;14.40;99.90
52323;DHT22;38263;52.920;6.238;2022-09-21T17:20:18;14.10;99.90
52323;DHT22;38263;52.920;6.238;2022-09-21T17:22:44;14.20;99.90
52323;DHT22;38263;52.920;6.238;2022-09-21T17:27:36;14.00;99.90
52323;DHT22;38263;52.920;6.238;2022-09-21T17:30:09;13.90;99.90
52323;DHT22;38263;52.920;6.238;2022-09-21T17:35:35;13.70;99.90
52323;DHT22;38263;52.920;6.238;2022-09-21T17:38:03;13.80;99.90
52323;DHT22;38263;52.920;6.238;2022-09-21T17:40:29;13.80;99.90
52323;DHT22;38263;52.920;6.238;2022-09-21T17:43:18;13.70;99.90
52323;DHT22;38263;52.920;6.238;2022-09-21T17:46:05;13.70;99.90
52323;DHT22;38263;52.920;6.238;2022-09-21T17:48:36;13.60;99.90
52323;DHT22;38263;52.920;6.238;2022-09-21T17:51:02;13.60;99.90
52323;DHT22;38263;52.920;6.238;2022-09-21T17:53:28;13.60;99.90
52323;DHT22;38263;52.920;6.238;2022-09-21T17:56:34;13.40;99.90
52323;DHT22;38263;52.920;6.238;2022-09-21T17:59:03;13.30;99.90
52323;DHT22;38263;52.920;6.238;2022-09-21T18:01:36;13.30;99.90
52323;DHT22;38263;52.920;6.238;2022-09-21T18:04:06;13.10;99.90
52323;DHT22;38263;52.920;6.238;2022-09-21T18:06:33;13.20;99.90
52323;DHT22;38263;52.920;6.238;2022-09-21T18:08:59;13.00;99.90
52323;DHT22;38263;52.920;6.238;2022-09-21T18:19:35;13.00;99.90
52323;DHT22;38263;52.920;6.238;2022-09-21T18:22:17;12.90;99.90
52323;DHT22;38263;52.920;6.238;2022-09-21T18:24:47;12.80;99.90
52323;DHT22;38263;52.920;6.238;2022-09-21T18:27:13;12.90;99.90
52323;DHT22;38263;52.920;6.238;2022-09-21T18:29:38;12.80;99.90
52323;DHT22;38263;52.920;6.238;2022-09-21T18:35:20;12.70;99.90
52323;DHT22;38263;52.920;6.238;2022-09-21T18:38:16;12.70;99.90
52323;DHT22;38263;52.920;6.238;2022-09-21T18:46:44;12.50;99.90
52323;DHT22;38263;52.920;6.238;2022-09-21T18:52:05;12.30;99.90
52323;DHT22;38263;52.920;6.238;2022-09-21T18:59:27;12.00;99.90
52323;DHT22;38263;52.920;6.238;2022-09-21T19:01:53;11.90;99.90
52323;DHT22;38263;52.920;6.238;2022-09-21T19:06:59;11.80;99.90
52323;DHT22;38263;52.920;6.238;2022-09-21T19:09:39;12.10;99.90
52323;DHT22;38263;52.920;6.238;2022-09-21T19:15:21;11.80;99.90
52323;DHT22;38263;52.920;6.238;2022-09-21T19:23:38;11.70;99.90
52323;DHT22;38263;52.920;6.238;2022-09-21T19:26:28;11.70;99.90
52323;DHT22;38263;52.920;6.238;2022-09-21T19:29:16;11.60;99.90
52323;DHT22;38263;52.920;6.238;2022-09-21T19:31:43;11.70;99.90
52323;DHT22;38263;52.920;6.238;2022-09-21T19:34:13;11.50;99.90
52323;DHT22;38263;52.920;6.238;2022-09-21T19:36:39;11.60;99.90
52323;DHT22;38263;52.920;6.238;2022-09-21T19:39:07;11.60;99.90
52323;DHT22;38263;52.920;6.238;2022-09-21T19:46:55;11.20;99.90
52323;DHT22;38263;52.920;6.238;2022-09-21T19:49:23;11.20;99.90
52323;DHT22;38263;52.920;6.238;2022-09-21T19:51:54;11.40;99.90
52323;DHT22;38263;52.920;6.238;2022-09-21T19:54:23;11.20;99.90
52323;DHT22;38263;52.920;6.238;2022-09-21T19:57:17;11.20;99.90
52323;DHT22;38263;52.920;6.238;2022-09-21T20:00:03;11.20;99.90
52323;DHT22;38263;52.920;6.238;2022-09-21T20:02:32;11.10;99.90
52323;DHT22;38263;52.920;6.238;2022-09-21T20:07:58;11.00;99.90
52323;DHT22;38263;52.920;6.238;2022-09-21T20:10:57;11.00;99.90
52323;DHT22;38263;52.920;6.238;2022-09-21T20:13:49;10.60;99.90
52323;DHT22;38263;52.920;6.238;2022-09-21T20:19:05;10.60;99.90
52323;DHT22;38263;52.920;6.238;2022-09-21T20:21:41;10.50;99.90